sensor_id;sensor_type;location;lat;lon;timestamp;temperature;humidity
20698;DHT22;10508;50.956;4.640;2022-11-15T00:00:47;11.20;99.90
20698;DHT22;10508;50.956;4.640;2022-11-15T00:03:14;11.10;99.90
20698;DHT22;10508;50.956;4.640;2022-11-15T00:05:40;11.10;99.90
20698;DHT22;10508;50.956;4.640;2022-11-15T00:08:06;11.10;99.90
20698;DHT22;10508;50.956;4.640;2022-11-15T00:10:31;11.20;99.90
20698;DHT22;10508;50.956;4.640;2022-11-15T00:12:57;11.20;99.90
20698;DHT22;10508;50.956;4.640;2022-11-15T00:15:23;11.20;99.90
20698;DHT22;10508;50.956;4.640;2022-11-15T00:17:49;11.20;99.90
20698;DHT22;10508;50.956;4.640;2022-11-15T00:20:15;11.20;99.90
20698;DHT22;10508;50.956;4.640;2022-11-15T00:22:41;11.30;99.90
20698;DHT22;10508;50.956;4.640;2022-11-15T00:25:07;11.30;99.90
20698;DHT22;10508;50.956;4.640;2022-11-15T00:27:32;11.30;99.90
20698;DHT22;10508;50.956;4.640;2022-11-15T00:29:58;11.30;99.90
20698;DHT22;10508;50.956;4.640;2022-11-15T00:32:23;11.30;99.90
20698;DHT22;10508;50.956;4.640;2022-11-15T00:35:07;11.30;99.90
20698;DHT22;10508;50.956;4.640;2022-11-15T00:37:33;11.40;99.90
20698;DHT22;10508;50.956;4.640;2022-11-15T00:39:58;11.40;99.90
20698;DHT22;10508;50.956;4.640;2022-11-15T00:42:24;11.30;99.90
20698;DHT22;10508;50.956;4.640;2022-11-15T00:44:55;11.30;99.90
20698;DHT22;10508;50.956;4.640;2022-11-15T00:47:21;11.30;99.90
20698;DHT22;10508;50.956;4.640;2022-11-15T00:49:46;11.30;99.90
20698;DHT22;10508;50.956;4.640;2022-11-15T00:52:12;11.30;99.90
20698;DHT22;10508;50.956;4.640;2022-11-15T00:54:37;11.30;99.90
20698;DHT22;10508;50.956;4.640;2022-11-15T00:57:03;11.40;99.90
20698;DHT22;10508;50.956;4.640;2022-11-15T00:59:29;11.30;99.90
20698;DHT22;10508;50.956;4.640;2022-11-15T01:01:54;11.40;99.90
20698;DHT22;10508;50.956;4.640;2022-11-15T01:04:20;11.40;99.90
20698;DHT22;10508;50.956;4.640;2022-11-15T01:06:46;11.30;99.90
20698;DHT22;10508;50.956;4.640;2022-11-15T01:09:11;11.40;99.90
20698;DHT22;10508;50.956;4.640;2022-11-15T01:11:38;11.40;99.90
20698;DHT22;10508;50.956;4.640;2022-11-15T01:14:04;11.40;99.90
20698;DHT22;10508;50.956;4.640;2022-11-15T01:16:30;11.50;99.90
20698;DHT22;10508;50.956;4.640;2022-11-15T01:18:55;11.50;99.90
20698;DHT22;10508;50.956;4.640;2022-11-15T01:21:21;11.50;99.90
20698;DHT22;10508;50.956;4.640;2022-11-15T01:23:47;11.50;99.90
20698;DHT22;10508;50.956;4.640;2022-11-15T01:26:14;11.60;99.90
20698;DHT22;10508;50.956;4.640;2022-11-15T01:28:41;11.50;99.90
20698;DHT22;10508;50.956;4.640;2022-11-15T01:31:12;11.60;99.90
20698;DHT22;10508;50.956;4.640;2022-11-15T01:33:38;11.60;99.90
20698;DHT22;10508;50.956;4.640;2022-11-15T01:36:06;11.60;99.90
20698;DHT22;10508;50.956;4.640;2022-11-15T01:38:32;11.60;99.90
20698;DHT22;10508;50.956;4.640;2022-11-15T01:40:58;11.60;99.90
20698;DHT22;10508;50.956;4.640;2022-11-15T01:43:32;11.60;99.90
20698;DHT22;10508;50.956;4.640;2022-11-15T01:46:02;11.60;99.90
20698;DHT22;10508;50.956;4.640;2022-11-15T01:48:33;11.50;99.90
20698;DHT22;10508;50.956;4.640;2022-11-15T01:51:01;11.50;99.90
20698;DHT22;10508;50.956;4.640;2022-11-15T01:53:29;11.70;99.90
20698;DHT22;10508;50.956;4.640;2022-11-15T01:55:57;11.70;99.90
20698;DHT22;10508;50.956;4.640;2022-11-15T01:58:24;11.70;99.90
20698;DHT22;10508;50.956;4.640;2022-11-15T02:00:50;11.60;99.90
20698;DHT22;10508;50.956;4.640;2022-11-15T02:03:17;11.70;99.90
20698;DHT22;10508;50.956;4.640;2022-11-15T02:05:43;11.70;99.90
20698;DHT22;10508;50.956;4.640;2022-11-15T02:08:10;11.60;99.90
20698;DHT22;10508;50.956;4.640;2022-11-15T02:10:45;11.60;99.90
20698;DHT22;10508;50.956;4.640;2022-11-15T02:13:13;11.60;99.90
20698;DHT22;10508;50.956;4.640;2022-11-15T02:15:52;11.60;99.90
20698;DHT22;10508;50.956;4.640;2022-11-15T02:18:23;11.60;99.90
20698;DHT22;10508;50.956;4.640;2022-11-15T02:21:02;11.60;99.90
20698;DHT22;10508;50.956;4.640;2022-11-15T02:29:52;11.60;99.90
20698;DHT22;10508;50.956;4.640;2022-11-15T02:35:07;11.60;99.90
20698;DHT22;10508;50.956;4.640;2022-11-15T02:37:57;11.60;99.90
20698;DHT22;10508;50.956;4.640;2022-11-15T02:40:50;11.50;99.90
20698;DHT22;10508;50.956;4.640;2022-11-15T02:43:25;11.50;99.90
20698;DHT22;10508;50.956;4.640;2022-11-15T02:49:39;11.60;99.90
20698;DHT22;10508;50.956;4.640;2022-11-15T02:52:05;11.60;99.90
20698;DHT22;10508;50.956;4.640;2022-11-15T02:54:33;11.50;99.90
20698;DHT22;10508;50.956;4.640;2022-11-15T02:57:12;11.50;99.90
20698;DHT22;10508;50.956;4.640;2022-11-15T03:00:06;11.60;99.90
20698;DHT22;10508;50.956;4.640;2022-11-15T03:05:53;11.60;99.90
20698;DHT22;10508;50.956;4.640;2022-11-15T03:09:10;11.70;99.90
20698;DHT22;10508;50.956;4.640;2022-11-15T03:11:44;11.80;99.90
20698;DHT22;10508;50.956;4.640;2022-11-15T03:14:23;11.70;99.90
20698;DHT22;10508;50.956;4.640;2022-11-15T03:17:08;11.70;99.90
20698;DHT22;10508;50.956;4.640;2022-11-15T03:19:43;11.70;99.90
20698;DHT22;10508;50.956;4.640;2022-11-15T03:22:16;11.70;99.90
20698;DHT22;10508;50.956;4.640;2022-11-15T03:24:45;11.60;99.90
20698;DHT22;10508;50.956;4.640;2022-11-15T03:27:15;11.70;99.90
20698;DHT22;10508;50.956;4.640;2022-11-15T03:29:54;11.70;99.90
20698;DHT22;10508;50.956;4.640;2022-11-15T03:32:29;11.80;99.90
20698;DHT22;10508;50.956;4.640;2022-11-15T03:35:23;11.80;99.90
20698;DHT22;10508;50.956;4.640;2022-11-15T03:40:47;11.70;99.90
20698;DHT22;10508;50.956;4.640;2022-11-15T03:46:00;11.60;99.90
20698;DHT22;10508;50.956;4.640;2022-11-15T03:48:30;11.60;99.90
20698;DHT22;10508;50.956;4.640;2022-11-15T03:50:59;11.60;99.90
20698;DHT22;10508;50.956;4.640;2022-11-15T03:53:24;11.50;99.90
20698;DHT22;10508;50.956;4.640;2022-11-15T03:55:50;11.50;99.90
20698;DHT22;10508;50.956;4.640;2022-11-15T03:58:16;11.50;99.90
20698;DHT22;10508;50.956;4.640;2022-11-15T04:00:41;11.50;99.90
20698;DHT22;10508;50.956;4.640;2022-11-15T04:03:07;11.50;99.90
20698;DHT22;10508;50.956;4.640;2022-11-15T04:05:33;11.50;99.90
20698;DHT22;10508;50.956;4.640;2022-11-15T04:08:02;11.50;99.90
20698;DHT22;10508;50.956;4.640;2022-11-15T04:10:27;11.50;99.90
20698;DHT22;10508;50.956;4.640;2022-11-15T04:12:53;11.50;99.90
20698;DHT22;10508;50.956;4.640;2022-11-15T04:15:22;11.50;99.90
20698;DHT22;10508;50.956;4.640;2022-11-15T04:17:53;11.50;99.90
20698;DHT22;10508;50.956;4.640;2022-11-15T04:20:30;11.50;99.90
20698;DHT22;10508;50.956;4.640;2022-11-15T04:23:17;11.50;99.90
20698;DHT22;10508;50.956;4.640;2022-11-15T04:26:06;11.50;99.90
20698;DHT22;10508;50.956;4.640;2022-11-15T04:28:33;11.50;99.90
20698;DHT22;10508;50.956;4.640;2022-11-15T04:30:58;11.50;99.90
20698;DHT22;10508;50.956;4.640;2022-11-15T04:33:24;11.50;99.90
20698;DHT22;10508;50.956;4.640;2022-11-15T04:35:50;11.50;99.90
20698;DHT22;10508;50.956;4.640;2022-11-15T04:38:35;11.50;99.90
20698;DHT22;10508;50.956;4.640;2022-11-15T04:41:01;11.50;99.90
20698;DHT22;10508;50.956;4.640;2022-11-15T04:43:28;11.50;99.90
20698;DHT22;10508;50.956;4.640;2022-11-15T04:45:53;11.50;99.90
20698;DHT22;10508;50.956;4.640;2022-11-15T04:48:19;11.50;99.90
20698;DHT22;10508;50.956;4.640;2022-11-15T04:50:47;11.50;99.90
20698;DHT22;10508;50.956;4.640;2022-11-15T04:53:12;11.60;99.90
20698;DHT22;10508;50.956;4.640;2022-11-15T04:55:38;11.50;99.90
20698;DHT22;10508;50.956;4.640;2022-11-15T04:58:03;11.50;99.90
20698;DHT22;10508;50.956;4.640;2022-11-15T05:00:29;11.50;99.90
20698;DHT22;10508;50.956;4.640;2022-11-15T05:02:56;11.40;99.90
20698;DHT22;10508;50.956;4.640;2022-11-15T05:05:40;11.40;99.90
20698;DHT22;10508;50.956;4.640;2022-11-15T05:08:06;11.40;99.90
20698;DHT22;10508;50.956;4.640;2022-11-15T05:10:31;11.30;99.90
20698;DHT22;10508;50.956;4.640;2022-11-15T05:12:57;11.30;99.90
20698;DHT22;10508;50.956;4.640;2022-11-15T05:15:23;11.30;99.90
20698;DHT22;10508;50.956;4.640;2022-11-15T05:17:48;11.40;99.90
20698;DHT22;10508;50.956;4.640;2022-11-15T05:20:14;11.30;99.90
20698;DHT22;10508;50.956;4.640;2022-11-15T05:22:40;11.30;99.90
20698;DHT22;10508;50.956;4.640;2022-11-15T05:25:06;11.30;99.90
20698;DHT22;10508;50.956;4.640;2022-11-15T05:27:32;11.30;99.90
20698;DHT22;10508;50.956;4.640;2022-11-15T05:29:58;11.30;99.90
20698;DHT22;10508;50.956;4.640;2022-11-15T05:32:24;11.30;99.90
20698;DHT22;10508;50.956;4.640;2022-11-15T05:34:50;11.30;99.90
20698;DHT22;10508;50.956;4.640;2022-11-15T05:37:16;11.20;99.90
20698;DHT22;10508;50.956;4.640;2022-11-15T05:39:42;11.20;99.90
20698;DHT22;10508;50.956;4.640;2022-11-15T05:42:09;11.10;99.90
20698;DHT22;10508;50.956;4.640;2022-11-15T05:44:36;11.10;99.90
20698;DHT22;10508;50.956;4.640;2022-11-15T05:47:04;11.10;99.90
20698;DHT22;10508;50.956;4.640;2022-11-15T05:49:33;11.20;99.90
20698;DHT22;10508;50.956;4.640;2022-11-15T05:51:59;11.10;99.90
20698;DHT22;10508;50.956;4.640;2022-11-15T05:54:26;11.10;99.90
20698;DHT22;10508;50.956;4.640;2022-11-15T05:56:51;11.00;99.90
20698;DHT22;10508;50.956;4.640;2022-11-15T05:59:18;11.00;99.90
20698;DHT22;10508;50.956;4.640;2022-11-15T06:01:44;11.00;99.90
20698;DHT22;10508;50.956;4.640;2022-11-15T06:04:09;11.00;99.90
20698;DHT22;10508;50.956;4.640;2022-11-15T06:06:35;10.90;99.90
20698;DHT22;10508;50.956;4.640;2022-11-15T06:09:01;10.90;99.90
20698;DHT22;10508;50.956;4.640;2022-11-15T06:11:26;10.90;99.90
20698;DHT22;10508;50.956;4.640;2022-11-15T06:13:52;10.90;99.90
20698;DHT22;10508;50.956;4.640;2022-11-15T06:16:17;10.80;99.90
20698;DHT22;10508;50.956;4.640;2022-11-15T06:18:43;10.80;99.90
20698;DHT22;10508;50.956;4.640;2022-11-15T06:21:08;10.70;99.90
20698;DHT22;10508;50.956;4.640;2022-11-15T06:23:35;10.80;99.90
20698;DHT22;10508;50.956;4.640;2022-11-15T06:26:01;10.80;99.90
20698;DHT22;10508;50.956;4.640;2022-11-15T06:28:33;10.80;99.90
20698;DHT22;10508;50.956;4.640;2022-11-15T06:31:07;10.80;99.90
20698;DHT22;10508;50.956;4.640;2022-11-15T06:33:32;10.80;99.90
20698;DHT22;10508;50.956;4.640;2022-11-15T06:36:03;10.70;99.90
20698;DHT22;10508;50.956;4.640;2022-11-15T06:38:29;10.70;99.90
20698;DHT22;10508;50.956;4.640;2022-11-15T06:41:04;10.60;99.90
20698;DHT22;10508;50.956;4.640;2022-11-15T06:43:30;10.60;99.90
20698;DHT22;10508;50.956;4.640;2022-11-15T06:45:58;10.60;99.90
20698;DHT22;10508;50.956;4.640;2022-11-15T06:48:25;10.50;99.90
20698;DHT22;10508;50.956;4.640;2022-11-15T06:50:55;10.40;99.90
20698;DHT22;10508;50.956;4.640;2022-11-15T06:53:22;10.30;99.90
20698;DHT22;10508;50.956;4.640;2022-11-15T06:55:48;10.30;99.90
20698;DHT22;10508;50.956;4.640;2022-11-15T06:58:13;10.30;99.90
20698;DHT22;10508;50.956;4.640;2022-11-15T07:00:39;10.30;99.90
20698;DHT22;10508;50.956;4.640;2022-11-15T07:03:05;10.20;99.90
20698;DHT22;10508;50.956;4.640;2022-11-15T07:05:31;10.20;99.90
20698;DHT22;10508;50.956;4.640;2022-11-15T07:07:58;10.10;99.90
20698;DHT22;10508;50.956;4.640;2022-11-15T07:10:24;10.20;99.90
20698;DHT22;10508;50.956;4.640;2022-11-15T07:12:51;10.20;99.90
20698;DHT22;10508;50.956;4.640;2022-11-15T07:15:18;10.20;99.90
20698;DHT22;10508;50.956;4.640;2022-11-15T07:17:44;10.20;99.90
20698;DHT22;10508;50.956;4.640;2022-11-15T07:20:10;10.10;99.90
20698;DHT22;10508;50.956;4.640;2022-11-15T07:22:36;10.10;99.90
20698;DHT22;10508;50.956;4.640;2022-11-15T07:25:02;10.10;99.90
20698;DHT22;10508;50.956;4.640;2022-11-15T07:27:27;10.10;99.90
20698;DHT22;10508;50.956;4.640;2022-11-15T07:29:53;10.10;99.90
20698;DHT22;10508;50.956;4.640;2022-11-15T07:32:18;10.00;99.90
20698;DHT22;10508;50.956;4.640;2022-11-15T07:34:44;10.00;99.90
20698;DHT22;10508;50.956;4.640;2022-11-15T07:37:11;10.00;99.90
20698;DHT22;10508;50.956;4.640;2022-11-15T07:39:37;10.00;99.90
20698;DHT22;10508;50.956;4.640;2022-11-15T07:42:02;10.00;99.90
20698;DHT22;10508;50.956;4.640;2022-11-15T07:44:46;10.10;99.90
20698;DHT22;10508;50.956;4.640;2022-11-15T07:47:12;10.00;99.90
20698;DHT22;10508;50.956;4.640;2022-11-15T07:49:38;10.00;99.90
20698;DHT22;10508;50.956;4.640;2022-11-15T07:52:03;10.10;99.90
20698;DHT22;10508;50.956;4.640;2022-11-15T07:54:29;10.10;99.90
20698;DHT22;10508;50.956;4.640;2022-11-15T07:56:54;10.10;99.90
20698;DHT22;10508;50.956;4.640;2022-11-15T07:59:20;10.10;99.90
20698;DHT22;10508;50.956;4.640;2022-11-15T08:01:46;10.10;99.90
20698;DHT22;10508;50.956;4.640;2022-11-15T08:04:11;10.10;99.90
20698;DHT22;10508;50.956;4.640;2022-11-15T08:06:37;10.10;99.90
20698;DHT22;10508;50.956;4.640;2022-11-15T08:09:03;10.10;99.90
20698;DHT22;10508;50.956;4.640;2022-11-15T08:11:29;10.10;99.90
20698;DHT22;10508;50.956;4.640;2022-11-15T08:13:54;10.20;99.90
20698;DHT22;10508;50.956;4.640;2022-11-15T08:16:20;10.30;99.90
20698;DHT22;10508;50.956;4.640;2022-11-15T08:18:46;10.30;99.90
20698;DHT22;10508;50.956;4.640;2022-11-15T08:21:16;10.40;99.90
20698;DHT22;10508;50.956;4.640;2022-11-15T08:23:43;10.50;99.90
20698;DHT22;10508;50.956;4.640;2022-11-15T08:26:08;10.60;99.90
20698;DHT22;10508;50.956;4.640;2022-11-15T08:28:34;10.60;99.90
20698;DHT22;10508;50.956;4.640;2022-11-15T08:31:00;10.60;99.90
20698;DHT22;10508;50.956;4.640;2022-11-15T08:33:26;10.70;99.90
20698;DHT22;10508;50.956;4.640;2022-11-15T08:35:51;10.70;99.90
20698;DHT22;10508;50.956;4.640;2022-11-15T08:38:17;10.70;99.90
20698;DHT22;10508;50.956;4.640;2022-11-15T08:40:42;10.80;99.90
20698;DHT22;10508;50.956;4.640;2022-11-15T08:43:08;10.80;99.90
20698;DHT22;10508;50.956;4.640;2022-11-15T08:45:34;11.00;99.90
20698;DHT22;10508;50.956;4.640;2022-11-15T08:48:03;11.00;99.90
20698;DHT22;10508;50.956;4.640;2022-11-15T08:55:21;11.20;99.90
20698;DHT22;10508;50.956;4.640;2022-11-15T08:57:46;11.20;99.90
20698;DHT22;10508;50.956;4.640;2022-11-15T09:00:12;11.20;99.90
20698;DHT22;10508;50.956;4.640;2022-11-15T09:02:39;11.20;99.90
20698;DHT22;10508;50.956;4.640;2022-11-15T09:05:05;11.20;99.90
20698;DHT22;10508;50.956;4.640;2022-11-15T09:09:57;11.10;99.90
20698;DHT22;10508;50.956;4.640;2022-11-15T09:12:24;11.10;99.90
20698;DHT22;10508;50.956;4.640;2022-11-15T09:17:15;11.50;99.90
20698;DHT22;10508;50.956;4.640;2022-11-15T09:19:41;12.10;99.90
20698;DHT22;10508;50.956;4.640;2022-11-15T09:22:07;12.60;99.90
20698;DHT22;10508;50.956;4.640;2022-11-15T09:27:00;13.70;99.90
20698;DHT22;10508;50.956;4.640;2022-11-15T09:29:26;14.00;99.90
20698;DHT22;10508;50.956;4.640;2022-11-15T09:31:54;13.80;99.90
20698;DHT22;10508;50.956;4.640;2022-11-15T09:36:46;13.70;99.90
20698;DHT22;10508;50.956;4.640;2022-11-15T09:39:12;14.00;99.90
20698;DHT22;10508;50.956;4.640;2022-11-15T09:41:46;14.30;99.90
20698;DHT22;10508;50.956;4.640;2022-11-15T09:49:13;15.70;99.90
20698;DHT22;10508;50.956;4.640;2022-11-15T09:54:32;16.50;99.90
20698;DHT22;10508;50.956;4.640;2022-11-15T09:57:14;17.10;99.30
20698;DHT22;10508;50.956;4.640;2022-11-15T10:00:10;17.10;98.30
20698;DHT22;10508;50.956;4.640;2022-11-15T10:05:19;16.40;99.10
20698;DHT22;10508;50.956;4.640;2022-11-15T10:08:03;15.30;99.90
20698;DHT22;10508;50.956;4.640;2022-11-15T10:10:46;14.20;99.90
20698;DHT22;10508;50.956;4.640;2022-11-15T10:15:46;13.50;99.90
20698;DHT22;10508;50.956;4.640;2022-11-15T10:18:19;13.50;99.90
20698;DHT22;10508;50.956;4.640;2022-11-15T10:20:49;13.80;99.90
20698;DHT22;10508;50.956;4.640;2022-11-15T10:23:18;14.90;99.90
20698;DHT22;10508;50.956;4.640;2022-11-15T10:25:44;15.60;99.90
20698;DHT22;10508;50.956;4.640;2022-11-15T10:28:33;15.10;99.90
20698;DHT22;10508;50.956;4.640;2022-11-15T10:31:00;14.90;99.90
20698;DHT22;10508;50.956;4.640;2022-11-15T10:33:33;15.30;99.90
20698;DHT22;10508;50.956;4.640;2022-11-15T10:46:43;15.80;98.90
20698;DHT22;10508;50.956;4.640;2022-11-15T10:49:19;15.30;99.10
20698;DHT22;10508;50.956;4.640;2022-11-15T10:52:04;15.20;99.70
20698;DHT22;10508;50.956;4.640;2022-11-15T10:54:43;15.60;99.00
20698;DHT22;10508;50.956;4.640;2022-11-15T10:57:35;16.10;98.50
20698;DHT22;10508;50.956;4.640;2022-11-15T11:02:58;15.40;98.80
20698;DHT22;10508;50.956;4.640;2022-11-15T11:05:37;15.00;99.40
20698;DHT22;10508;50.956;4.640;2022-11-15T11:13:27;13.90;99.90
20698;DHT22;10508;50.956;4.640;2022-11-15T11:21:39;13.50;99.90
20698;DHT22;10508;50.956;4.640;2022-11-15T11:31:14;13.40;99.90
20698;DHT22;10508;50.956;4.640;2022-11-15T11:41:43;13.40;99.90
20698;DHT22;10508;50.956;4.640;2022-11-15T11:47:14;13.40;99.90
20698;DHT22;10508;50.956;4.640;2022-11-15T11:49:50;13.40;99.90
20698;DHT22;10508;50.956;4.640;2022-11-15T11:52:37;13.50;99.90
20698;DHT22;10508;50.956;4.640;2022-11-15T11:58:13;13.40;99.90
20698;DHT22;10508;50.956;4.640;2022-11-15T12:04:18;13.50;99.90
20698;DHT22;10508;50.956;4.640;2022-11-15T12:06:49;13.50;99.90
20698;DHT22;10508;50.956;4.640;2022-11-15T12:09:39;13.50;99.90
20698;DHT22;10508;50.956;4.640;2022-11-15T12:12:23;13.50;99.90
20698;DHT22;10508;50.956;4.640;2022-11-15T12:14:56;13.50;99.90
20698;DHT22;10508;50.956;4.640;2022-11-15T12:17:25;13.50;99.90
20698;DHT22;10508;50.956;4.640;2022-11-15T12:20:03;13.50;99.90
20698;DHT22;10508;50.956;4.640;2022-11-15T12:25:51;13.50;99.90
20698;DHT22;10508;50.956;4.640;2022-11-15T12:30:54;13.50;99.90
20698;DHT22;10508;50.956;4.640;2022-11-15T12:33:46;13.50;99.90
20698;DHT22;10508;50.956;4.640;2022-11-15T12:41:31;13.60;99.90
20698;DHT22;10508;50.956;4.640;2022-11-15T12:43:57;13.50;99.90
20698;DHT22;10508;50.956;4.640;2022-11-15T12:49:01;13.60;99.90
20698;DHT22;10508;50.956;4.640;2022-11-15T13:17:52;13.70;99.90
20698;DHT22;10508;50.956;4.640;2022-11-15T13:20:29;13.70;99.90
20698;DHT22;10508;50.956;4.640;2022-11-15T13:30:37;13.90;99.90
20698;DHT22;10508;50.956;4.640;2022-11-15T13:33:29;13.90;99.90
20698;DHT22;10508;50.956;4.640;2022-11-15T13:35:58;13.90;99.90
20698;DHT22;10508;50.956;4.640;2022-11-15T13:40:49;13.80;99.90
20698;DHT22;10508;50.956;4.640;2022-11-15T13:46:15;13.80;99.90
20698;DHT22;10508;50.956;4.640;2022-11-15T13:48:42;13.80;99.90
20698;DHT22;10508;50.956;4.640;2022-11-15T13:51:22;13.70;99.90
20698;DHT22;10508;50.956;4.640;2022-11-15T13:53:58;13.70;99.90
20698;DHT22;10508;50.956;4.640;2022-11-15T13:56:26;13.80;99.90
20698;DHT22;10508;50.956;4.640;2022-11-15T13:58:52;13.80;99.90
20698;DHT22;10508;50.956;4.640;2022-11-15T14:01:20;13.80;99.90
20698;DHT22;10508;50.956;4.640;2022-11-15T14:03:50;13.80;99.90
20698;DHT22;10508;50.956;4.640;2022-11-15T14:06:18;13.80;99.90
20698;DHT22;10508;50.956;4.640;2022-11-15T14:11:37;13.90;99.90
20698;DHT22;10508;50.956;4.640;2022-11-15T14:14:12;13.90;99.90
20698;DHT22;10508;50.956;4.640;2022-11-15T14:16:39;13.90;99.90
20698;DHT22;10508;50.956;4.640;2022-11-15T14:19:08;13.80;99.90
20698;DHT22;10508;50.956;4.640;2022-11-15T14:21:35;13.90;99.90
20698;DHT22;10508;50.956;4.640;2022-11-15T14:24:19;13.90;99.90
20698;DHT22;10508;50.956;4.640;2022-11-15T14:26:45;13.90;99.90
20698;DHT22;10508;50.956;4.640;2022-11-15T14:29:27;13.80;99.90
20698;DHT22;10508;50.956;4.640;2022-11-15T14:32:05;13.80;99.90
20698;DHT22;10508;50.956;4.640;2022-11-15T14:34:37;13.80;99.90
20698;DHT22;10508;50.956;4.640;2022-11-15T14:37:02;13.80;99.90
20698;DHT22;10508;50.956;4.640;2022-11-15T14:39:28;13.80;99.90
20698;DHT22;10508;50.956;4.640;2022-11-15T14:41:53;13.70;99.90
20698;DHT22;10508;50.956;4.640;2022-11-15T14:44:19;13.70;99.90
20698;DHT22;10508;50.956;4.640;2022-11-15T14:46:45;13.60;99.90
20698;DHT22;10508;50.956;4.640;2022-11-15T14:49:11;13.60;99.90
20698;DHT22;10508;50.956;4.640;2022-11-15T14:51:38;13.50;99.90
20698;DHT22;10508;50.956;4.640;2022-11-15T14:54:04;13.50;99.90
20698;DHT22;10508;50.956;4.640;2022-11-15T14:56:29;13.50;99.90
20698;DHT22;10508;50.956;4.640;2022-11-15T14:58:55;13.50;99.90
20698;DHT22;10508;50.956;4.640;2022-11-15T15:01:24;13.50;99.90
20698;DHT22;10508;50.956;4.640;2022-11-15T15:03:50;13.40;99.90
20698;DHT22;10508;50.956;4.640;2022-11-15T15:06:24;13.40;99.90
20698;DHT22;10508;50.956;4.640;2022-11-15T15:08:50;13.40;99.90
20698;DHT22;10508;50.956;4.640;2022-11-15T15:11:21;13.40;99.90
20698;DHT22;10508;50.956;4.640;2022-11-15T15:13:48;13.30;99.90
20698;DHT22;10508;50.956;4.640;2022-11-15T15:16:14;13.40;99.90
20698;DHT22;10508;50.956;4.640;2022-11-15T15:18:39;13.30;99.90
20698;DHT22;10508;50.956;4.640;2022-11-15T15:21:25;13.30;99.90
20698;DHT22;10508;50.956;4.640;2022-11-15T15:23:51;13.30;99.90
20698;DHT22;10508;50.956;4.640;2022-11-15T15:26:19;13.20;99.90
20698;DHT22;10508;50.956;4.640;2022-11-15T15:28:45;13.20;99.90
20698;DHT22;10508;50.956;4.640;2022-11-15T15:31:11;13.20;99.90
20698;DHT22;10508;50.956;4.640;2022-11-15T15:33:37;13.20;99.90
20698;DHT22;10508;50.956;4.640;2022-11-15T15:36:03;13.10;99.90
20698;DHT22;10508;50.956;4.640;2022-11-15T15:38:29;13.10;99.90
20698;DHT22;10508;50.956;4.640;2022-11-15T15:40:55;13.10;99.90
20698;DHT22;10508;50.956;4.640;2022-11-15T15:43:20;13.00;99.90
20698;DHT22;10508;50.956;4.640;2022-11-15T15:45:46;13.00;99.90
20698;DHT22;10508;50.956;4.640;2022-11-15T15:48:16;13.00;99.90
20698;DHT22;10508;50.956;4.640;2022-11-15T15:50:42;13.00;99.90
20698;DHT22;10508;50.956;4.640;2022-11-15T15:53:08;13.00;99.90
20698;DHT22;10508;50.956;4.640;2022-11-15T15:55:36;13.00;99.90
20698;DHT22;10508;50.956;4.640;2022-11-15T15:58:03;13.00;99.90
20698;DHT22;10508;50.956;4.640;2022-11-15T16:00:28;13.00;99.90
20698;DHT22;10508;50.956;4.640;2022-11-15T16:02:54;13.00;99.90
20698;DHT22;10508;50.956;4.640;2022-11-15T16:05:21;12.90;99.90
20698;DHT22;10508;50.956;4.640;2022-11-15T16:07:47;12.90;99.90
20698;DHT22;10508;50.956;4.640;2022-11-15T16:12:41;12.80;99.90
20698;DHT22;10508;50.956;4.640;2022-11-15T16:15:08;12.80;99.90
20698;DHT22;10508;50.956;4.640;2022-11-15T16:20:01;12.80;99.90
20698;DHT22;10508;50.956;4.640;2022-11-15T16:22:27;12.80;99.90
20698;DHT22;10508;50.956;4.640;2022-11-15T16:24:54;12.70;99.90
20698;DHT22;10508;50.956;4.640;2022-11-15T16:27:20;12.70;99.90
20698;DHT22;10508;50.956;4.640;2022-11-15T16:29:47;12.70;99.90
20698;DHT22;10508;50.956;4.640;2022-11-15T16:32:13;12.70;99.90
20698;DHT22;10508;50.956;4.640;2022-11-15T16:34:39;12.70;99.90
20698;DHT22;10508;50.956;4.640;2022-11-15T16:37:05;12.70;99.90
20698;DHT22;10508;50.956;4.640;2022-11-15T16:39:31;12.70;99.90
20698;DHT22;10508;50.956;4.640;2022-11-15T16:41:57;12.70;99.90
20698;DHT22;10508;50.956;4.640;2022-11-15T16:44:24;12.60;99.90
20698;DHT22;10508;50.956;4.640;2022-11-15T16:46:50;12.70;99.90
20698;DHT22;10508;50.956;4.640;2022-11-15T16:49:17;12.70;99.90
20698;DHT22;10508;50.956;4.640;2022-11-15T16:51:48;12.70;99.90
20698;DHT22;10508;50.956;4.640;2022-11-15T16:54:14;12.70;99.90
20698;DHT22;10508;50.956;4.640;2022-11-15T16:56:41;12.70;99.90
20698;DHT22;10508;50.956;4.640;2022-11-15T16:59:10;12.60;99.90
20698;DHT22;10508;50.956;4.640;2022-11-15T17:01:39;12.70;99.90
20698;DHT22;10508;50.956;4.640;2022-11-15T17:04:11;12.70;99.90
20698;DHT22;10508;50.956;4.640;2022-11-15T17:06:38;12.60;99.90
20698;DHT22;10508;50.956;4.640;2022-11-15T17:09:05;12.70;99.90
20698;DHT22;10508;50.956;4.640;2022-11-15T17:11:31;12.60;99.90
20698;DHT22;10508;50.956;4.640;2022-11-15T17:13:57;12.60;99.90
20698;DHT22;10508;50.956;4.640;2022-11-15T17:16:24;12.70;99.90
20698;DHT22;10508;50.956;4.640;2022-11-15T17:18:51;12.70;99.90
20698;DHT22;10508;50.956;4.640;2022-11-15T17:21:19;12.70;99.90
20698;DHT22;10508;50.956;4.640;2022-11-15T17:23:45;12.70;99.90
20698;DHT22;10508;50.956;4.640;2022-11-15T17:26:13;12.70;99.90
20698;DHT22;10508;50.956;4.640;2022-11-15T17:28:39;12.70;99.90
20698;DHT22;10508;50.956;4.640;2022-11-15T17:31:07;12.70;99.90
20698;DHT22;10508;50.956;4.640;2022-11-15T17:33:32;12.70;99.90
20698;DHT22;10508;50.956;4.640;2022-11-15T17:36:00;12.60;99.90
20698;DHT22;10508;50.956;4.640;2022-11-15T17:38:26;12.60;99.90
20698;DHT22;10508;50.956;4.640;2022-11-15T17:41:04;12.60;99.90
20698;DHT22;10508;50.956;4.640;2022-11-15T17:43:31;12.60;99.90
20698;DHT22;10508;50.956;4.640;2022-11-15T17:45:58;12.60;99.90
20698;DHT22;10508;50.956;4.640;2022-11-15T17:48:24;12.60;99.90
20698;DHT22;10508;50.956;4.640;2022-11-15T17:51:00;12.60;99.90
20698;DHT22;10508;50.956;4.640;2022-11-15T17:53:27;12.60;99.90
20698;DHT22;10508;50.956;4.640;2022-11-15T17:56:03;12.60;99.90
20698;DHT22;10508;50.956;4.640;2022-11-15T17:58:30;12.60;99.90
20698;DHT22;10508;50.956;4.640;2022-11-15T18:01:05;12.60;99.90
20698;DHT22;10508;50.956;4.640;2022-11-15T18:03:37;12.60;99.90
20698;DHT22;10508;50.956;4.640;2022-11-15T18:06:04;12.60;99.90
20698;DHT22;10508;50.956;4.640;2022-11-15T18:08:31;12.60;99.90
20698;DHT22;10508;50.956;4.640;2022-11-15T18:11:13;12.60;99.90
20698;DHT22;10508;50.956;4.640;2022-11-15T18:13:41;12.60;99.90
20698;DHT22;10508;50.956;4.640;2022-11-15T18:16:10;12.60;99.90
20698;DHT22;10508;50.956;4.640;2022-11-15T18:18:37;12.60;99.90
20698;DHT22;10508;50.956;4.640;2022-11-15T18:21:08;12.60;99.90